KBCT/BCT METAR and TAF weather

Enter ICAO airport designator
Station Type Date Time Source
KBCT METAR 2018/10/16 19:59 UTC NOAA

KBCT 161959Z 11015KT 10SM SCT024 30/24 A3004


Station Type Date Time Source
KBCT Decoded METAR 2018/10/16 19:59 UTC NOAA

Boca Raton, Boca Raton Airport, FL, United States (KBCT) 26-22-43N 080-06-28W
Oct 16, 2018 - 03:59 PM EDT / 2018.10.16 1959 UTC
Wind: from the ESE (110 degrees) at 17 MPH (15 KT):0
Visibility: 10 mile(s):0
Sky conditions: partly cloudy
Temperature: 86 F (30 C)
Heat index: 95.0 F (35.0 C):1
Dew Point: 75 F (24 C)
Relative Humidity: 70%
Pressure (altimeter): 30.04 in. Hg (1017 hPa)
ob: KBCT 161959Z 11015KT 10SM SCT024 30/24 A3004
cycle: 20

Station Type Date Time Source
KBCT TAF UTC NOAA

Error!


Example: see airport list